sensor_id;sensor_type;location;lat;lon;timestamp;P1;durP1;ratioP1;P2;durP2;ratioP2
31424;SDS011;18054;51.572;7.372;2023-09-07T00:02:34;9.38;;;5.88;;
31424;SDS011;18054;51.572;7.372;2023-09-07T00:05:07;11.13;;;5.57;;
31424;SDS011;18054;51.572;7.372;2023-09-07T00:07:35;10.48;;;6.03;;
31424;SDS011;18054;51.572;7.372;2023-09-07T00:12:31;9.50;;;5.88;;
31424;SDS011;18054;51.572;7.372;2023-09-07T00:14:58;10.30;;;6.55;;
31424;SDS011;18054;51.572;7.372;2023-09-07T00:19:55;9.98;;;5.75;;
31424;SDS011;18054;51.572;7.372;2023-09-07T00:22:24;11.88;;;6.57;;
31424;SDS011;18054;51.572;7.372;2023-09-07T00:24:52;11.45;;;6.65;;
31424;SDS011;18054;51.572;7.372;2023-09-07T00:27:19;19.10;;;6.38;;
31424;SDS011;18054;51.572;7.372;2023-09-07T00:29:47;11.80;;;6.32;;
31424;SDS011;18054;51.572;7.372;2023-09-07T00:32:14;9.82;;;6.25;;
31424;SDS011;18054;51.572;7.372;2023-09-07T00:34:42;13.05;;;6.15;;
31424;SDS011;18054;51.572;7.372;2023-09-07T00:37:11;17.92;;;6.55;;
31424;SDS011;18054;51.572;7.372;2023-09-07T00:39:38;17.10;;;5.95;;
31424;SDS011;18054;51.572;7.372;2023-09-07T00:42:06;11.10;;;6.65;;
31424;SDS011;18054;51.572;7.372;2023-09-07T00:44:33;12.27;;;5.68;;
31424;SDS011;18054;51.572;7.372;2023-09-07T00:47:01;10.02;;;5.80;;
31424;SDS011;18054;51.572;7.372;2023-09-07T00:49:29;9.70;;;5.75;;
31424;SDS011;18054;51.572;7.372;2023-09-07T00:51:57;10.40;;;5.80;;
31424;SDS011;18054;51.572;7.372;2023-09-07T00:54:26;13.98;;;6.10;;
31424;SDS011;18054;51.572;7.372;2023-09-07T00:56:53;10.20;;;5.85;;
31424;SDS011;18054;51.572;7.372;2023-09-07T00:59:21;13.38;;;6.18;;
31424;SDS011;18054;51.572;7.372;2023-09-07T01:01:49;13.05;;;6.63;;
31424;SDS011;18054;51.572;7.372;2023-09-07T01:04:18;12.57;;;6.30;;
31424;SDS011;18054;51.572;7.372;2023-09-07T01:06:47;12.00;;;6.35;;
31424;SDS011;18054;51.572;7.372;2023-09-07T01:09:19;13.35;;;6.85;;
31424;SDS011;18054;51.572;7.372;2023-09-07T01:11:48;12.73;;;5.85;;
31424;SDS011;18054;51.572;7.372;2023-09-07T01:14:16;10.65;;;5.47;;
31424;SDS011;18054;51.572;7.372;2023-09-07T01:16:43;11.98;;;6.57;;
31424;SDS011;18054;51.572;7.372;2023-09-07T01:19:11;12.00;;;6.60;;
31424;SDS011;18054;51.572;7.372;2023-09-07T01:21:40;11.07;;;6.25;;
31424;SDS011;18054;51.572;7.372;2023-09-07T01:24:09;10.82;;;6.40;;
31424;SDS011;18054;51.572;7.372;2023-09-07T01:26:37;10.30;;;6.30;;
31424;SDS011;18054;51.572;7.372;2023-09-07T01:29:06;13.60;;;6.93;;
31424;SDS011;18054;51.572;7.372;2023-09-07T01:31:35;10.20;;;5.78;;
31424;SDS011;18054;51.572;7.372;2023-09-07T01:34:04;17.15;;;6.25;;
31424;SDS011;18054;51.572;7.372;2023-09-07T01:36:32;12.30;;;6.00;;
31424;SDS011;18054;51.572;7.372;2023-09-07T01:39:04;13.93;;;6.72;;
31424;SDS011;18054;51.572;7.372;2023-09-07T01:41:33;12.93;;;5.90;;
31424;SDS011;18054;51.572;7.372;2023-09-07T01:44:01;12.27;;;6.28;;
31424;SDS011;18054;51.572;7.372;2023-09-07T01:46:28;15.13;;;6.15;;
31424;SDS011;18054;51.572;7.372;2023-09-07T01:48:56;9.02;;;6.07;;
31424;SDS011;18054;51.572;7.372;2023-09-07T01:51:24;11.82;;;5.53;;
31424;SDS011;18054;51.572;7.372;2023-09-07T01:53:54;16.50;;;6.63;;
31424;SDS011;18054;51.572;7.372;2023-09-07T01:56:23;17.40;;;6.60;;
31424;SDS011;18054;51.572;7.372;2023-09-07T01:58:50;12.25;;;6.43;;
31424;SDS011;18054;51.572;7.372;2023-09-07T02:01:21;16.25;;;5.50;;
31424;SDS011;18054;51.572;7.372;2023-09-07T02:03:49;11.68;;;5.80;;
31424;SDS011;18054;51.572;7.372;2023-09-07T02:06:17;10.32;;;5.80;;
31424;SDS011;18054;51.572;7.372;2023-09-07T02:08:44;12.65;;;6.40;;
31424;SDS011;18054;51.572;7.372;2023-09-07T02:13:42;11.35;;;5.88;;
31424;SDS011;18054;51.572;7.372;2023-09-07T02:16:10;9.52;;;5.75;;
31424;SDS011;18054;51.572;7.372;2023-09-07T02:18:37;13.35;;;5.65;;
31424;SDS011;18054;51.572;7.372;2023-09-07T02:21:09;13.27;;;6.13;;
31424;SDS011;18054;51.572;7.372;2023-09-07T02:26:04;11.77;;;6.10;;
31424;SDS011;18054;51.572;7.372;2023-09-07T02:28:32;9.38;;;5.43;;
31424;SDS011;18054;51.572;7.372;2023-09-07T02:31:03;11.32;;;5.95;;
31424;SDS011;18054;51.572;7.372;2023-09-07T02:33:31;12.15;;;6.45;;
31424;SDS011;18054;51.572;7.372;2023-09-07T02:38:26;8.85;;;5.72;;
31424;SDS011;18054;51.572;7.372;2023-09-07T02:40:55;12.00;;;5.90;;
31424;SDS011;18054;51.572;7.372;2023-09-07T02:43:23;10.65;;;6.25;;
31424;SDS011;18054;51.572;7.372;2023-09-07T02:45:50;8.45;;;4.75;;
31424;SDS011;18054;51.572;7.372;2023-09-07T02:48:22;12.20;;;6.18;;
31424;SDS011;18054;51.572;7.372;2023-09-07T02:50:49;10.90;;;5.95;;
31424;SDS011;18054;51.572;7.372;2023-09-07T02:53:20;10.88;;;6.10;;
31424;SDS011;18054;51.572;7.372;2023-09-07T02:55:48;13.45;;;5.75;;
31424;SDS011;18054;51.572;7.372;2023-09-07T02:58:16;7.80;;;5.40;;
31424;SDS011;18054;51.572;7.372;2023-09-07T03:00:44;14.77;;;5.65;;
31424;SDS011;18054;51.572;7.372;2023-09-07T03:03:15;20.08;;;5.70;;
31424;SDS011;18054;51.572;7.372;2023-09-07T03:05:45;10.10;;;6.10;;
31424;SDS011;18054;51.572;7.372;2023-09-07T03:08:13;11.23;;;5.65;;
31424;SDS011;18054;51.572;7.372;2023-09-07T03:10:41;8.40;;;5.20;;
31424;SDS011;18054;51.572;7.372;2023-09-07T03:13:10;14.70;;;5.20;;
31424;SDS011;18054;51.572;7.372;2023-09-07T03:15:37;15.80;;;5.80;;
31424;SDS011;18054;51.572;7.372;2023-09-07T03:18:10;10.77;;;5.80;;
31424;SDS011;18054;51.572;7.372;2023-09-07T03:20:38;9.13;;;5.38;;
31424;SDS011;18054;51.572;7.372;2023-09-07T03:23:07;8.43;;;5.07;;
31424;SDS011;18054;51.572;7.372;2023-09-07T03:25:35;7.43;;;5.15;;
31424;SDS011;18054;51.572;7.372;2023-09-07T03:28:03;8.65;;;4.80;;
31424;SDS011;18054;51.572;7.372;2023-09-07T03:30:33;15.38;;;5.13;;
31424;SDS011;18054;51.572;7.372;2023-09-07T03:33:02;11.25;;;5.15;;
31424;SDS011;18054;51.572;7.372;2023-09-07T03:35:30;11.27;;;5.05;;
31424;SDS011;18054;51.572;7.372;2023-09-07T03:37:58;11.02;;;5.28;;
31424;SDS011;18054;51.572;7.372;2023-09-07T03:40:27;11.02;;;5.40;;
31424;SDS011;18054;51.572;7.372;2023-09-07T03:42:55;11.13;;;5.95;;
31424;SDS011;18054;51.572;7.372;2023-09-07T03:45:24;10.77;;;5.43;;
31424;SDS011;18054;51.572;7.372;2023-09-07T03:47:51;9.13;;;4.53;;
31424;SDS011;18054;51.572;7.372;2023-09-07T03:50:20;13.43;;;5.30;;
31424;SDS011;18054;51.572;7.372;2023-09-07T03:52:47;11.15;;;4.80;;
31424;SDS011;18054;51.572;7.372;2023-09-07T03:55:15;7.57;;;4.85;;
31424;SDS011;18054;51.572;7.372;2023-09-07T03:57:44;9.63;;;5.03;;
31424;SDS011;18054;51.572;7.372;2023-09-07T04:00:12;7.90;;;5.07;;
31424;SDS011;18054;51.572;7.372;2023-09-07T04:02:44;8.02;;;4.78;;
31424;SDS011;18054;51.572;7.372;2023-09-07T04:05:13;7.60;;;4.78;;
31424;SDS011;18054;51.572;7.372;2023-09-07T04:07:40;12.52;;;5.45;;
31424;SDS011;18054;51.572;7.372;2023-09-07T04:10:08;8.10;;;4.88;;
31424;SDS011;18054;51.572;7.372;2023-09-07T04:15:05;9.70;;;5.38;;
31424;SDS011;18054;51.572;7.372;2023-09-07T04:17:33;9.25;;;5.72;;
31424;SDS011;18054;51.572;7.372;2023-09-07T04:20:07;10.77;;;5.15;;
31424;SDS011;18054;51.572;7.372;2023-09-07T04:22:35;13.05;;;5.20;;
31424;SDS011;18054;51.572;7.372;2023-09-07T04:25:02;8.40;;;5.60;;
31424;SDS011;18054;51.572;7.372;2023-09-07T04:27:30;10.13;;;5.65;;
31424;SDS011;18054;51.572;7.372;2023-09-07T04:30:00;10.75;;;5.45;;
31424;SDS011;18054;51.572;7.372;2023-09-07T04:32:31;8.57;;;5.35;;
31424;SDS011;18054;51.572;7.372;2023-09-07T04:34:58;8.02;;;4.82;;
31424;SDS011;18054;51.572;7.372;2023-09-07T04:37:29;7.85;;;4.97;;
31424;SDS011;18054;51.572;7.372;2023-09-07T04:39:57;9.68;;;5.05;;
31424;SDS011;18054;51.572;7.372;2023-09-07T04:42:25;12.13;;;4.82;;
31424;SDS011;18054;51.572;7.372;2023-09-07T04:44:52;9.68;;;5.68;;
31424;SDS011;18054;51.572;7.372;2023-09-07T04:47:19;14.83;;;5.00;;
31424;SDS011;18054;51.572;7.372;2023-09-07T04:49:49;10.40;;;5.30;;
31424;SDS011;18054;51.572;7.372;2023-09-07T04:52:19;9.00;;;4.88;;
31424;SDS011;18054;51.572;7.372;2023-09-07T04:54:47;13.18;;;5.60;;
31424;SDS011;18054;51.572;7.372;2023-09-07T04:57:16;10.43;;;5.75;;
31424;SDS011;18054;51.572;7.372;2023-09-07T04:59:44;13.32;;;5.35;;
31424;SDS011;18054;51.572;7.372;2023-09-07T05:04:40;8.48;;;5.00;;
31424;SDS011;18054;51.572;7.372;2023-09-07T05:07:09;8.93;;;5.45;;
31424;SDS011;18054;51.572;7.372;2023-09-07T05:09:36;9.32;;;5.60;;
31424;SDS011;18054;51.572;7.372;2023-09-07T05:12:04;15.35;;;5.80;;
31424;SDS011;18054;51.572;7.372;2023-09-07T05:16:59;12.15;;;5.78;;
31424;SDS011;18054;51.572;7.372;2023-09-07T05:24:23;9.68;;;5.30;;
31424;SDS011;18054;51.572;7.372;2023-09-07T05:26:51;11.43;;;6.50;;
31424;SDS011;18054;51.572;7.372;2023-09-07T05:29:18;11.65;;;6.40;;
31424;SDS011;18054;51.572;7.372;2023-09-07T05:31:47;11.48;;;5.85;;
31424;SDS011;18054;51.572;7.372;2023-09-07T05:34:14;13.15;;;7.03;;
31424;SDS011;18054;51.572;7.372;2023-09-07T05:36:42;12.50;;;6.57;;
31424;SDS011;18054;51.572;7.372;2023-09-07T05:41:38;16.23;;;5.63;;
31424;SDS011;18054;51.572;7.372;2023-09-07T05:44:06;23.00;;;6.03;;
31424;SDS011;18054;51.572;7.372;2023-09-07T05:46:34;16.73;;;5.82;;
31424;SDS011;18054;51.572;7.372;2023-09-07T05:49:01;17.08;;;6.47;;
31424;SDS011;18054;51.572;7.372;2023-09-07T05:51:29;15.30;;;6.43;;
31424;SDS011;18054;51.572;7.372;2023-09-07T05:53:57;8.18;;;5.22;;
31424;SDS011;18054;51.572;7.372;2023-09-07T05:56:25;15.27;;;5.65;;
31424;SDS011;18054;51.572;7.372;2023-09-07T05:58:54;26.90;;;6.07;;
31424;SDS011;18054;51.572;7.372;2023-09-07T06:01:21;11.23;;;6.07;;
31424;SDS011;18054;51.572;7.372;2023-09-07T06:03:50;15.27;;;5.82;;
31424;SDS011;18054;51.572;7.372;2023-09-07T06:08:45;15.68;;;6.00;;
31424;SDS011;18054;51.572;7.372;2023-09-07T06:11:13;14.13;;;6.30;;
31424;SDS011;18054;51.572;7.372;2023-09-07T06:13:41;11.05;;;5.80;;
31424;SDS011;18054;51.572;7.372;2023-09-07T06:16:10;40.85;;;6.00;;
31424;SDS011;18054;51.572;7.372;2023-09-07T06:18:37;10.38;;;5.85;;
31424;SDS011;18054;51.572;7.372;2023-09-07T06:21:05;12.82;;;6.72;;
31424;SDS011;18054;51.572;7.372;2023-09-07T06:23:32;8.90;;;5.50;;
31424;SDS011;18054;51.572;7.372;2023-09-07T06:26:00;10.82;;;5.70;;
31424;SDS011;18054;51.572;7.372;2023-09-07T06:28:29;15.30;;;5.53;;
31424;SDS011;18054;51.572;7.372;2023-09-07T06:30:58;20.45;;;8.25;;
31424;SDS011;18054;51.572;7.372;2023-09-07T06:33:26;13.93;;;5.63;;
31424;SDS011;18054;51.572;7.372;2023-09-07T06:35:54;8.88;;;5.30;;
31424;SDS011;18054;51.572;7.372;2023-09-07T06:38:23;13.73;;;7.38;;
31424;SDS011;18054;51.572;7.372;2023-09-07T06:40:51;14.50;;;5.57;;
31424;SDS011;18054;51.572;7.372;2023-09-07T06:43:19;11.13;;;6.40;;
31424;SDS011;18054;51.572;7.372;2023-09-07T06:45:47;16.67;;;6.00;;
31424;SDS011;18054;51.572;7.372;2023-09-07T06:48:15;8.57;;;5.63;;
31424;SDS011;18054;51.572;7.372;2023-09-07T06:50:44;11.48;;;6.00;;
31424;SDS011;18054;51.572;7.372;2023-09-07T06:53:12;10.02;;;6.15;;
31424;SDS011;18054;51.572;7.372;2023-09-07T06:55:39;16.10;;;6.32;;
31424;SDS011;18054;51.572;7.372;2023-09-07T06:58:07;19.02;;;6.28;;
31424;SDS011;18054;51.572;7.372;2023-09-07T07:00:35;11.23;;;5.15;;
31424;SDS011;18054;51.572;7.372;2023-09-07T07:03:03;15.77;;;5.20;;
31424;SDS011;18054;51.572;7.372;2023-09-07T07:05:31;11.80;;;5.47;;
31424;SDS011;18054;51.572;7.372;2023-09-07T07:08:01;9.65;;;5.22;;
31424;SDS011;18054;51.572;7.372;2023-09-07T07:10:29;13.05;;;5.18;;
31424;SDS011;18054;51.572;7.372;2023-09-07T07:12:57;8.45;;;5.18;;
31424;SDS011;18054;51.572;7.372;2023-09-07T07:15:24;11.52;;;5.57;;
31424;SDS011;18054;51.572;7.372;2023-09-07T07:17:52;12.40;;;5.20;;
31424;SDS011;18054;51.572;7.372;2023-09-07T07:22:47;12.45;;;5.35;;
31424;SDS011;18054;51.572;7.372;2023-09-07T07:25:18;16.15;;;4.75;;
31424;SDS011;18054;51.572;7.372;2023-09-07T07:27:46;11.85;;;5.13;;
31424;SDS011;18054;51.572;7.372;2023-09-07T07:30:14;14.73;;;4.65;;
31424;SDS011;18054;51.572;7.372;2023-09-07T07:32:42;10.73;;;4.95;;
31424;SDS011;18054;51.572;7.372;2023-09-07T07:37:37;34.47;;;5.38;;
31424;SDS011;18054;51.572;7.372;2023-09-07T07:40:05;9.25;;;5.00;;
31424;SDS011;18054;51.572;7.372;2023-09-07T07:42:34;12.88;;;4.63;;
31424;SDS011;18054;51.572;7.372;2023-09-07T07:45:02;9.77;;;4.93;;
31424;SDS011;18054;51.572;7.372;2023-09-07T07:47:30;7.72;;;4.07;;
31424;SDS011;18054;51.572;7.372;2023-09-07T07:49:58;10.10;;;4.63;;
31424;SDS011;18054;51.572;7.372;2023-09-07T07:52:25;7.47;;;3.88;;
31424;SDS011;18054;51.572;7.372;2023-09-07T07:59:49;7.18;;;3.42;;
31424;SDS011;18054;51.572;7.372;2023-09-07T08:02:17;10.73;;;4.20;;
31424;SDS011;18054;51.572;7.372;2023-09-07T08:04:45;9.20;;;4.22;;
31424;SDS011;18054;51.572;7.372;2023-09-07T08:07:13;9.63;;;4.25;;
31424;SDS011;18054;51.572;7.372;2023-09-07T08:12:08;31.73;;;16.70;;
31424;SDS011;18054;51.572;7.372;2023-09-07T08:14:36;9.77;;;4.18;;
31424;SDS011;18054;51.572;7.372;2023-09-07T08:22:01;10.00;;;4.38;;
31424;SDS011;18054;51.572;7.372;2023-09-07T08:24:30;6.20;;;3.65;;
31424;SDS011;18054;51.572;7.372;2023-09-07T08:26:58;6.53;;;3.70;;
31424;SDS011;18054;51.572;7.372;2023-09-07T08:29:27;14.52;;;4.15;;
31424;SDS011;18054;51.572;7.372;2023-09-07T08:31:58;10.55;;;4.97;;
31424;SDS011;18054;51.572;7.372;2023-09-07T08:34:28;12.15;;;4.60;;
31424;SDS011;18054;51.572;7.372;2023-09-07T08:36:55;10.32;;;3.13;;
31424;SDS011;18054;51.572;7.372;2023-09-07T08:39:26;9.60;;;3.92;;
31424;SDS011;18054;51.572;7.372;2023-09-07T08:41:54;11.25;;;3.88;;
31424;SDS011;18054;51.572;7.372;2023-09-07T08:44:28;11.60;;;3.80;;
31424;SDS011;18054;51.572;7.372;2023-09-07T08:46:56;11.75;;;3.40;;
31424;SDS011;18054;51.572;7.372;2023-09-07T08:49:24;6.20;;;3.15;;
31424;SDS011;18054;51.572;7.372;2023-09-07T08:51:52;13.02;;;3.95;;
31424;SDS011;18054;51.572;7.372;2023-09-07T08:54:20;8.48;;;5.20;;
31424;SDS011;18054;51.572;7.372;2023-09-07T08:56:51;14.23;;;3.50;;
31424;SDS011;18054;51.572;7.372;2023-09-07T08:59:18;11.43;;;3.25;;
31424;SDS011;18054;51.572;7.372;2023-09-07T09:01:46;11.35;;;3.83;;
31424;SDS011;18054;51.572;7.372;2023-09-07T09:06:41;6.93;;;3.53;;
31424;SDS011;18054;51.572;7.372;2023-09-07T09:09:09;19.63;;;4.07;;
31424;SDS011;18054;51.572;7.372;2023-09-07T09:11:39;15.18;;;3.95;;
31424;SDS011;18054;51.572;7.372;2023-09-07T09:14:08;9.50;;;3.30;;
31424;SDS011;18054;51.572;7.372;2023-09-07T09:16:36;14.95;;;3.83;;
31424;SDS011;18054;51.572;7.372;2023-09-07T09:19:03;10.35;;;4.25;;
31424;SDS011;18054;51.572;7.372;2023-09-07T09:21:31;7.13;;;3.25;;
31424;SDS011;18054;51.572;7.372;2023-09-07T09:26:26;9.95;;;3.33;;
31424;SDS011;18054;51.572;7.372;2023-09-07T09:28:56;13.80;;;4.35;;
31424;SDS011;18054;51.572;7.372;2023-09-07T09:31:25;10.73;;;3.53;;
31424;SDS011;18054;51.572;7.372;2023-09-07T09:33:52;10.05;;;4.05;;
31424;SDS011;18054;51.572;7.372;2023-09-07T09:36:20;12.63;;;3.72;;
31424;SDS011;18054;51.572;7.372;2023-09-07T09:38:48;12.93;;;3.42;;
31424;SDS011;18054;51.572;7.372;2023-09-07T09:41:19;13.65;;;3.40;;
31424;SDS011;18054;51.572;7.372;2023-09-07T09:43:47;10.35;;;3.17;;
31424;SDS011;18054;51.572;7.372;2023-09-07T09:46:17;8.15;;;3.38;;
31424;SDS011;18054;51.572;7.372;2023-09-07T09:48:46;8.88;;;3.30;;
31424;SDS011;18054;51.572;7.372;2023-09-07T09:51:14;9.95;;;3.50;;
31424;SDS011;18054;51.572;7.372;2023-09-07T09:53:42;7.82;;;3.40;;
31424;SDS011;18054;51.572;7.372;2023-09-07T09:56:10;10.05;;;3.08;;
31424;SDS011;18054;51.572;7.372;2023-09-07T10:03:34;8.82;;;3.22;;
31424;SDS011;18054;51.572;7.372;2023-09-07T10:06:17;7.32;;;3.45;;
31424;SDS011;18054;51.572;7.372;2023-09-07T10:08:52;14.15;;;3.63;;
31424;SDS011;18054;51.572;7.372;2023-09-07T10:11:26;13.02;;;3.60;;
31424;SDS011;18054;51.572;7.372;2023-09-07T10:13:56;13.40;;;3.63;;
31424;SDS011;18054;51.572;7.372;2023-09-07T10:16:24;13.02;;;3.15;;
31424;SDS011;18054;51.572;7.372;2023-09-07T10:18:53;8.15;;;3.90;;
31424;SDS011;18054;51.572;7.372;2023-09-07T10:28:44;7.95;;;3.08;;
31424;SDS011;18054;51.572;7.372;2023-09-07T10:31:15;9.25;;;3.20;;
31424;SDS011;18054;51.572;7.372;2023-09-07T10:33:43;12.38;;;3.55;;
31424;SDS011;18054;51.572;7.372;2023-09-07T10:36:19;7.65;;;3.70;;
31424;SDS011;18054;51.572;7.372;2023-09-07T10:38:47;10.93;;;3.35;;
31424;SDS011;18054;51.572;7.372;2023-09-07T10:41:15;18.73;;;5.38;;
31424;SDS011;18054;51.572;7.372;2023-09-07T10:43:47;8.48;;;3.00;;
31424;SDS011;18054;51.572;7.372;2023-09-07T10:46:17;8.18;;;3.28;;
31424;SDS011;18054;51.572;7.372;2023-09-07T10:48:45;8.68;;;3.05;;
31424;SDS011;18054;51.572;7.372;2023-09-07T10:53:40;7.03;;;3.35;;
31424;SDS011;18054;51.572;7.372;2023-09-07T10:56:08;16.33;;;3.47;;
31424;SDS011;18054;51.572;7.372;2023-09-07T11:01:09;7.85;;;3.03;;
31424;SDS011;18054;51.572;7.372;2023-09-07T11:03:44;10.55;;;3.55;;
31424;SDS011;18054;51.572;7.372;2023-09-07T11:06:14;17.95;;;6.43;;
31424;SDS011;18054;51.572;7.372;2023-09-07T11:08:42;9.38;;;3.40;;
31424;SDS011;18054;51.572;7.372;2023-09-07T11:16:07;9.90;;;3.58;;
31424;SDS011;18054;51.572;7.372;2023-09-07T11:18:36;14.25;;;3.65;;
31424;SDS011;18054;51.572;7.372;2023-09-07T11:21:03;5.55;;;3.20;;
31424;SDS011;18054;51.572;7.372;2023-09-07T11:23:31;7.47;;;3.28;;
31424;SDS011;18054;51.572;7.372;2023-09-07T11:26:04;14.30;;;3.70;;
31424;SDS011;18054;51.572;7.372;2023-09-07T11:28:32;8.65;;;3.30;;
31424;SDS011;18054;51.572;7.372;2023-09-07T11:33:30;12.10;;;3.30;;
31424;SDS011;18054;51.572;7.372;2023-09-07T11:36:00;14.70;;;4.00;;
31424;SDS011;18054;51.572;7.372;2023-09-07T11:38:28;8.38;;;3.22;;
31424;SDS011;18054;51.572;7.372;2023-09-07T11:40:56;6.55;;;3.20;;
31424;SDS011;18054;51.572;7.372;2023-09-07T11:43:23;10.40;;;3.40;;
31424;SDS011;18054;51.572;7.372;2023-09-07T11:45:51;15.07;;;2.72;;
31424;SDS011;18054;51.572;7.372;2023-09-07T11:48:18;14.65;;;3.15;;
31424;SDS011;18054;51.572;7.372;2023-09-07T11:50:46;9.38;;;2.88;;
31424;SDS011;18054;51.572;7.372;2023-09-07T11:53:15;6.65;;;2.90;;
31424;SDS011;18054;51.572;7.372;2023-09-07T11:55:42;7.53;;;2.58;;
31424;SDS011;18054;51.572;7.372;2023-09-07T11:58:10;21.30;;;2.75;;
31424;SDS011;18054;51.572;7.372;2023-09-07T12:00:37;16.15;;;2.85;;
31424;SDS011;18054;51.572;7.372;2023-09-07T12:03:07;8.40;;;5.38;;
31424;SDS011;18054;51.572;7.372;2023-09-07T12:05:34;7.13;;;3.17;;
31424;SDS011;18054;51.572;7.372;2023-09-07T12:08:03;9.75;;;2.50;;
31424;SDS011;18054;51.572;7.372;2023-09-07T12:10:32;11.90;;;2.50;;
31424;SDS011;18054;51.572;7.372;2023-09-07T12:13:00;6.30;;;2.72;;
31424;SDS011;18054;51.572;7.372;2023-09-07T12:15:27;6.97;;;2.22;;
31424;SDS011;18054;51.572;7.372;2023-09-07T12:17:55;6.30;;;2.67;;
31424;SDS011;18054;51.572;7.372;2023-09-07T12:20:24;6.28;;;2.42;;
31424;SDS011;18054;51.572;7.372;2023-09-07T12:22:51;10.23;;;2.95;;
31424;SDS011;18054;51.572;7.372;2023-09-07T12:25:19;4.57;;;2.20;;
31424;SDS011;18054;51.572;7.372;2023-09-07T12:27:48;5.63;;;2.78;;
31424;SDS011;18054;51.572;7.372;2023-09-07T12:30:19;8.38;;;2.42;;
31424;SDS011;18054;51.572;7.372;2023-09-07T12:32:48;9.88;;;2.88;;
31424;SDS011;18054;51.572;7.372;2023-09-07T12:35:16;9.25;;;2.45;;
31424;SDS011;18054;51.572;7.372;2023-09-07T12:37:44;11.95;;;2.35;;
31424;SDS011;18054;51.572;7.372;2023-09-07T12:40:11;11.18;;;2.95;;
31424;SDS011;18054;51.572;7.372;2023-09-07T12:42:40;5.78;;;2.83;;
31424;SDS011;18054;51.572;7.372;2023-09-07T12:45:09;8.90;;;2.58;;
31424;SDS011;18054;51.572;7.372;2023-09-07T12:47:38;6.68;;;2.25;;
31424;SDS011;18054;51.572;7.372;2023-09-07T12:50:06;19.77;;;3.40;;
31424;SDS011;18054;51.572;7.372;2023-09-07T12:52:34;5.85;;;3.03;;
31424;SDS011;18054;51.572;7.372;2023-09-07T12:55:04;8.07;;;2.80;;
31424;SDS011;18054;51.572;7.372;2023-09-07T12:57:32;5.47;;;2.22;;
31424;SDS011;18054;51.572;7.372;2023-09-07T12:59:59;5.57;;;2.40;;
31424;SDS011;18054;51.572;7.372;2023-09-07T13:02:28;9.20;;;2.40;;
31424;SDS011;18054;51.572;7.372;2023-09-07T13:04:56;12.27;;;2.25;;
31424;SDS011;18054;51.572;7.372;2023-09-07T13:07:24;7.50;;;2.53;;
31424;SDS011;18054;51.572;7.372;2023-09-07T13:09:51;5.15;;;2.25;;
31424;SDS011;18054;51.572;7.372;2023-09-07T13:12:20;19.73;;;2.95;;
31424;SDS011;18054;51.572;7.372;2023-09-07T13:14:48;10.00;;;2.45;;
31424;SDS011;18054;51.572;7.372;2023-09-07T13:17:16;7.55;;;2.17;;
31424;SDS011;18054;51.572;7.372;2023-09-07T13:19:44;7.20;;;2.25;;
31424;SDS011;18054;51.572;7.372;2023-09-07T13:22:14;4.43;;;2.38;;
31424;SDS011;18054;51.572;7.372;2023-09-07T13:24:42;5.18;;;2.08;;
31424;SDS011;18054;51.572;7.372;2023-09-07T13:27:09;4.70;;;2.05;;
31424;SDS011;18054;51.572;7.372;2023-09-07T13:29:37;4.38;;;2.20;;
31424;SDS011;18054;51.572;7.372;2023-09-07T13:32:05;3.30;;;2.03;;
31424;SDS011;18054;51.572;7.372;2023-09-07T13:34:32;4.60;;;2.25;;
31424;SDS011;18054;51.572;7.372;2023-09-07T13:37:01;4.88;;;2.22;;
31424;SDS011;18054;51.572;7.372;2023-09-07T13:39:29;8.80;;;2.50;;
31424;SDS011;18054;51.572;7.372;2023-09-07T13:41:56;4.10;;;2.08;;
31424;SDS011;18054;51.572;7.372;2023-09-07T13:44:24;5.47;;;2.00;;
31424;SDS011;18054;51.572;7.372;2023-09-07T13:46:51;5.50;;;2.10;;
31424;SDS011;18054;51.572;7.372;2023-09-07T13:49:20;5.60;;;2.40;;
31424;SDS011;18054;51.572;7.372;2023-09-07T13:51:48;3.75;;;1.85;;
31424;SDS011;18054;51.572;7.372;2023-09-07T13:54:18;5.22;;;2.20;;
31424;SDS011;18054;51.572;7.372;2023-09-07T13:56:45;12.30;;;2.47;;
31424;SDS011;18054;51.572;7.372;2023-09-07T13:59:13;3.95;;;1.98;;
31424;SDS011;18054;51.572;7.372;2023-09-07T14:01:40;4.50;;;2.00;;
31424;SDS011;18054;51.572;7.372;2023-09-07T14:04:08;13.07;;;2.17;;
31424;SDS011;18054;51.572;7.372;2023-09-07T14:06:35;12.77;;;2.17;;
31424;SDS011;18054;51.572;7.372;2023-09-07T14:09:03;7.65;;;1.98;;
31424;SDS011;18054;51.572;7.372;2023-09-07T14:11:34;4.55;;;2.03;;
31424;SDS011;18054;51.572;7.372;2023-09-07T14:14:02;7.95;;;2.38;;
31424;SDS011;18054;51.572;7.372;2023-09-07T14:16:29;7.82;;;2.17;;
31424;SDS011;18054;51.572;7.372;2023-09-07T14:18:57;7.47;;;1.95;;
31424;SDS011;18054;51.572;7.372;2023-09-07T14:21:24;4.72;;;1.85;;
31424;SDS011;18054;51.572;7.372;2023-09-07T14:23:52;5.53;;;1.92;;
31424;SDS011;18054;51.572;7.372;2023-09-07T14:26:20;4.78;;;1.73;;
31424;SDS011;18054;51.572;7.372;2023-09-07T14:28:48;4.55;;;1.95;;
31424;SDS011;18054;51.572;7.372;2023-09-07T14:31:16;14.90;;;2.47;;
31424;SDS011;18054;51.572;7.372;2023-09-07T14:33:44;7.65;;;2.92;;
31424;SDS011;18054;51.572;7.372;2023-09-07T14:36:11;3.47;;;2.00;;
31424;SDS011;18054;51.572;7.372;2023-09-07T14:38:39;5.57;;;2.40;;
31424;SDS011;18054;51.572;7.372;2023-09-07T14:41:08;6.88;;;2.55;;
31424;SDS011;18054;51.572;7.372;2023-09-07T14:43:37;5.03;;;2.20;;
31424;SDS011;18054;51.572;7.372;2023-09-07T14:46:06;4.63;;;1.98;;
31424;SDS011;18054;51.572;7.372;2023-09-07T14:48:34;9.35;;;2.10;;
31424;SDS011;18054;51.572;7.372;2023-09-07T14:51:03;8.88;;;1.90;;
31424;SDS011;18054;51.572;7.372;2023-09-07T14:53:30;6.03;;;1.90;;
31424;SDS011;18054;51.572;7.372;2023-09-07T14:55:58;8.05;;;2.22;;
31424;SDS011;18054;51.572;7.372;2023-09-07T14:58:26;6.10;;;2.13;;
31424;SDS011;18054;51.572;7.372;2023-09-07T15:00:54;4.53;;;2.00;;
31424;SDS011;18054;51.572;7.372;2023-09-07T15:03:22;8.15;;;2.35;;
31424;SDS011;18054;51.572;7.372;2023-09-07T15:05:50;4.85;;;2.25;;
31424;SDS011;18054;51.572;7.372;2023-09-07T15:08:18;11.48;;;1.98;;
31424;SDS011;18054;51.572;7.372;2023-09-07T15:10:45;3.90;;;2.10;;
31424;SDS011;18054;51.572;7.372;2023-09-07T15:13:13;7.35;;;2.00;;
31424;SDS011;18054;51.572;7.372;2023-09-07T15:15:40;7.70;;;2.00;;
31424;SDS011;18054;51.572;7.372;2023-09-07T15:18:08;11.15;;;2.38;;
31424;SDS011;18054;51.572;7.372;2023-09-07T15:20:37;7.05;;;2.15;;
31424;SDS011;18054;51.572;7.372;2023-09-07T15:23:05;2.70;;;1.65;;
31424;SDS011;18054;51.572;7.372;2023-09-07T15:25:33;10.20;;;2.40;;
31424;SDS011;18054;51.572;7.372;2023-09-07T15:28:00;9.43;;;2.22;;
31424;SDS011;18054;51.572;7.372;2023-09-07T15:30:28;4.30;;;2.15;;
31424;SDS011;18054;51.572;7.372;2023-09-07T15:32:55;6.45;;;1.63;;
31424;SDS011;18054;51.572;7.372;2023-09-07T15:35:23;5.10;;;2.00;;
31424;SDS011;18054;51.572;7.372;2023-09-07T15:37:52;4.13;;;1.95;;
31424;SDS011;18054;51.572;7.372;2023-09-07T15:40:19;3.58;;;2.08;;
31424;SDS011;18054;51.572;7.372;2023-09-07T15:42:47;7.00;;;2.45;;
31424;SDS011;18054;51.572;7.372;2023-09-07T15:45:15;10.55;;;2.67;;
31424;SDS011;18054;51.572;7.372;2023-09-07T15:47:42;9.18;;;2.83;;
31424;SDS011;18054;51.572;7.372;2023-09-07T15:50:11;6.97;;;2.70;;
31424;SDS011;18054;51.572;7.372;2023-09-07T15:52:45;9.23;;;2.40;;
31424;SDS011;18054;51.572;7.372;2023-09-07T15:55:15;7.43;;;2.55;;
31424;SDS011;18054;51.572;7.372;2023-09-07T15:57:44;6.85;;;2.70;;
31424;SDS011;18054;51.572;7.372;2023-09-07T16:00:14;6.80;;;2.90;;
31424;SDS011;18054;51.572;7.372;2023-09-07T16:02:42;8.23;;;2.38;;
31424;SDS011;18054;51.572;7.372;2023-09-07T16:05:10;6.10;;;2.20;;